createdAt,value
2019-02-15T00:03:23.559Z,75.60
2019-02-15T00:07:28.111Z,74.90
2019-02-15T00:11:32.660Z,73.90
2019-02-15T00:15:37.219Z,74.00
2019-02-15T00:19:44.948Z,74.20
2019-02-15T00:23:49.512Z,74.10
2019-02-15T00:27:54.048Z,74.80
2019-02-15T00:31:58.582Z,75.10
2019-02-15T00:36:03.133Z,75.10
2019-02-15T00:40:07.697Z,75.30
2019-02-15T00:47:38.050Z,75.50
2019-02-15T00:56:04.394Z,75.80
2019-02-15T01:00:37.433Z,75.80
2019-02-15T01:04:59.422Z,76.40
2019-02-15T01:09:21.791Z,76.90
2019-02-15T01:13:31.226Z,74.50
2019-02-15T01:21:15.216Z,75.40
2019-02-15T01:25:19.708Z,76.30
2019-02-15T01:29:46.216Z,76.00
2019-02-15T01:34:18.599Z,77.20
2019-02-15T01:38:39.802Z,76.10
2019-02-15T01:43:06.026Z,76.80
2019-02-15T01:47:17.406Z,77.00
2019-02-15T01:51:21.924Z,76.70
2019-02-15T01:55:26.473Z,76.20
2019-02-15T01:59:31.082Z,76.10
2019-02-15T02:03:35.617Z,76.70
2019-02-15T02:07:40.140Z,77.70
2019-02-15T02:11:44.689Z,76.70
2019-02-15T02:15:49.261Z,76.10
2019-02-15T02:19:53.820Z,75.40
2019-02-15T02:23:58.368Z,75.10
2019-02-15T02:28:02.911Z,75.30
2019-02-15T02:32:07.405Z,75.40
2019-02-15T02:36:11.934Z,75.30
2019-02-15T02:40:16.482Z,75.20
2019-02-15T02:44:21.015Z,75.00
2019-02-15T02:48:25.557Z,74.90
2019-02-15T02:52:30.073Z,75.00
2019-02-15T02:56:34.628Z,75.00
2019-02-15T03:00:39.182Z,75.10
2019-02-15T03:04:43.780Z,75.30
2019-02-15T03:08:48.314Z,75.20
2019-02-15T03:12:52.871Z,75.40
2019-02-15T03:16:57.451Z,75.30
2019-02-15T03:21:01.976Z,75.30
2019-02-15T03:25:06.640Z,75.60
2019-02-15T03:29:11.222Z,75.60
2019-02-15T03:33:15.710Z,75.50
2019-02-15T03:37:41.953Z,75.70
2019-02-15T03:41:46.513Z,75.40
2019-02-15T03:45:51.181Z,75.30
2019-02-15T03:49:55.753Z,75.50
2019-02-15T03:54:00.291Z,75.20
2019-02-15T03:58:04.769Z,75.30
2019-02-15T04:02:09.306Z,75.30
2019-02-15T04:06:13.876Z,75.40
2019-02-15T04:10:18.439Z,75.50
2019-02-15T04:14:32.272Z,75.60
2019-02-15T04:18:29.148Z,75.70
2019-02-15T04:22:33.685Z,75.60
2019-02-15T04:26:38.225Z,75.60
2019-02-15T04:30:42.790Z,75.70
2019-02-15T04:34:47.328Z,75.70
2019-02-15T04:38:51.825Z,76.00
2019-02-15T04:42:56.355Z,75.80
2019-02-15T04:53:41.575Z,75.40
2019-02-15T04:57:46.111Z,75.90
2019-02-15T05:01:51.009Z,75.70
2019-02-15T05:05:55.646Z,75.50
2019-02-15T05:10:00.315Z,75.50
2019-02-15T05:14:04.776Z,75.60
2019-02-15T05:18:09.307Z,75.50
2019-02-15T05:22:13.849Z,75.50
2019-02-15T05:26:18.396Z,75.60
2019-02-15T05:30:22.965Z,75.50
2019-02-15T05:44:00.972Z,74.80
2019-02-15T05:48:05.503Z,75.60
2019-02-15T05:52:10.055Z,75.60
2019-02-15T05:58:53.343Z,75.00
2019-02-15T06:07:17.764Z,75.20
2019-02-15T06:11:22.352Z,75.70
2019-02-15T06:15:26.893Z,75.70
2019-02-15T06:19:31.430Z,75.80
2019-02-15T06:23:35.979Z,75.70
2019-02-15T06:27:40.536Z,75.80
2019-02-15T06:31:45.064Z,75.80
2019-02-15T06:35:49.608Z,76.10
2019-02-15T06:39:54.146Z,76.20
2019-02-15T06:43:58.684Z,76.00
2019-02-15T06:52:01.399Z,75.50
2019-02-15T06:56:05.988Z,76.10
2019-02-15T07:00:28.739Z,76.20
2019-02-15T07:04:40.734Z,76.30
2019-02-15T07:10:38.294Z,76.00
2019-02-15T07:15:01.160Z,75.90
2019-02-15T07:19:05.745Z,76.60
2019-02-15T07:23:10.255Z,76.90
2019-02-15T07:27:14.791Z,76.70
2019-02-15T07:31:19.317Z,76.70
2019-02-15T07:35:24.133Z,76.80
2019-02-15T07:39:28.646Z,77.00
2019-02-15T07:52:14.578Z,76.50
2019-02-15T07:56:19.121Z,77.30
2019-02-15T08:00:23.612Z,77.60
2019-02-15T08:04:57.539Z,77.30
2019-02-15T08:17:44.468Z,77.50
2019-02-15T08:24:14.271Z,78.50
2019-02-15T08:28:18.807Z,79.20
2019-02-15T08:36:41.278Z,80.00
2019-02-15T08:40:45.775Z,80.40
2019-02-15T08:44:50.326Z,80.60
2019-02-15T08:48:54.855Z,80.60
2019-02-15T08:52:59.683Z,81.00
2019-02-15T08:57:04.237Z,81.20
2019-02-15T09:01:08.743Z,81.20
2019-02-15T09:09:20.469Z,80.60
2019-02-15T09:13:25.010Z,82.00
2019-02-15T09:17:29.562Z,83.00
2019-02-15T09:22:28.288Z,81.60
2019-02-15T09:26:32.857Z,82.50
2019-02-15T09:30:37.395Z,83.10
2019-02-15T09:34:41.943Z,81.90
2019-02-15T09:39:54.250Z,83.40
2019-02-15T09:43:58.797Z,83.60
2019-02-15T09:48:03.279Z,82.80
2019-02-15T09:52:07.823Z,82.50
2019-02-15T09:56:12.358Z,83.30
2019-02-15T10:00:16.914Z,81.80
2019-02-15T10:04:21.487Z,81.50
2019-02-15T10:08:26.032Z,80.80
2019-02-15T10:15:53.487Z,82.70
2019-02-15T10:19:58.019Z,82.10
2019-02-15T10:28:00.840Z,81.80
2019-02-15T10:32:05.646Z,81.50
2019-02-15T10:40:04.486Z,81.30
2019-02-15T10:46:37.606Z,80.50
2019-02-15T10:50:37.120Z,80.90
2019-02-15T10:54:41.651Z,79.50
2019-02-15T10:58:46.158Z,78.60
2019-02-15T11:02:50.762Z,79.10
2019-02-15T11:06:55.314Z,77.90
2019-02-15T11:10:59.887Z,76.60
2019-02-15T11:15:04.568Z,75.80
2019-02-15T11:19:09.088Z,77.30
2019-02-15T11:23:14.116Z,76.40
2019-02-15T11:27:18.647Z,75.40
2019-02-15T11:31:23.236Z,75.20
2019-02-15T11:35:27.792Z,74.60
2019-02-15T11:39:32.287Z,74.10
2019-02-15T11:43:36.820Z,74.10
2019-02-15T11:47:41.350Z,73.60
2019-02-15T11:51:45.942Z,73.90
2019-02-15T11:55:50.455Z,73.60
2019-02-15T11:59:54.948Z,73.20
2019-02-15T12:03:59.568Z,73.50
2019-02-15T12:08:04.085Z,72.90
2019-02-15T12:12:10.656Z,72.90
2019-02-15T12:16:14.851Z,72.90
2019-02-15T12:20:19.360Z,72.60
2019-02-15T12:24:23.916Z,74.50
2019-02-15T12:28:30.544Z,75.00
2019-02-15T12:32:34.626Z,73.70
2019-02-15T12:36:39.300Z,75.50
2019-02-15T12:40:43.808Z,75.10
2019-02-15T12:44:48.386Z,73.90
2019-02-15T12:48:52.934Z,73.00
2019-02-15T12:52:57.475Z,72.40
2019-02-15T12:57:02.015Z,72.00
2019-02-15T13:01:06.533Z,71.90
2019-02-15T13:05:11.521Z,74.70
2019-02-15T13:09:16.068Z,76.50
2019-02-15T13:13:20.699Z,76.80
2019-02-15T13:17:25.249Z,74.60
2019-02-15T13:21:29.717Z,73.30
2019-02-15T13:25:36.815Z,72.60
2019-02-15T13:29:40.465Z,71.90
2019-02-15T13:33:45.092Z,71.10
2019-02-15T13:37:49.660Z,72.80
2019-02-15T13:41:54.201Z,74.20
2019-02-15T13:45:58.688Z,75.40
2019-02-15T13:50:03.231Z,74.90
2019-02-15T13:54:07.763Z,71.90
2019-02-15T13:58:12.301Z,75.00
2019-02-15T14:02:16.795Z,74.80
2019-02-15T14:06:21.359Z,72.70
2019-02-15T14:10:25.883Z,76.30
2019-02-15T14:14:30.416Z,75.50
2019-02-15T14:18:34.920Z,75.80
2019-02-15T14:22:39.550Z,74.20
2019-02-15T14:26:44.091Z,74.70
2019-02-15T14:30:48.616Z,70.40
2019-02-15T14:34:53.143Z,74.70
2019-02-15T14:38:57.696Z,75.90
2019-02-15T14:43:02.237Z,76.20
2019-02-15T14:47:06.790Z,75.90
2019-02-15T14:51:11.327Z,74.70
2019-02-15T14:55:15.842Z,70.70
2019-02-15T14:59:20.336Z,74.40
2019-02-15T15:03:24.921Z,74.60
2019-02-15T15:07:29.731Z,76.00
2019-02-15T15:11:34.263Z,75.70
2019-02-15T15:15:39.107Z,77.90
2019-02-15T15:19:43.625Z,79.00
2019-02-15T15:23:48.139Z,78.40
2019-02-15T15:27:52.675Z,76.60
2019-02-15T15:31:57.199Z,71.40
2019-02-15T15:36:01.730Z,74.60
2019-02-15T15:40:07.235Z,74.60
2019-02-15T15:44:11.759Z,75.20
2019-02-15T15:48:22.543Z,73.90
2019-02-15T15:52:22.488Z,73.10
2019-02-15T15:56:26.998Z,71.40
2019-02-15T16:00:38.800Z,72.90
2019-02-15T16:04:37.947Z,75.80
2019-02-15T16:08:42.491Z,75.10
2019-02-15T16:12:47.664Z,75.20
2019-02-15T16:16:52.170Z,75.60
2019-02-15T16:20:56.691Z,75.10
2019-02-15T16:25:01.240Z,75.30
2019-02-15T16:29:05.777Z,75.80
2019-02-15T16:33:10.601Z,75.30
2019-02-15T16:37:15.217Z,75.60
2019-02-15T16:41:19.771Z,75.40
2019-02-15T16:45:24.619Z,75.40
2019-02-15T16:49:29.521Z,75.80
2019-02-15T16:53:34.228Z,75.20
2019-02-15T16:57:38.990Z,75.40
2019-02-15T17:01:44.329Z,75.30
2019-02-15T17:05:49.144Z,75.40
2019-02-15T17:09:54.035Z,75.50
2019-02-15T17:13:59.008Z,75.00
2019-02-15T17:18:03.867Z,75.20
2019-02-15T17:22:08.716Z,74.90
2019-02-15T17:26:13.598Z,75.70
2019-02-15T17:30:18.410Z,74.20
2019-02-15T17:34:22.910Z,75.50
2019-02-15T17:38:27.473Z,74.30
2019-02-15T17:42:32.112Z,75.30
2019-02-15T17:46:36.660Z,75.50
2019-02-15T17:50:41.214Z,72.40
2019-02-15T17:54:45.827Z,71.00
2019-02-15T17:58:50.369Z,70.00
2019-02-15T18:02:54.944Z,69.60
2019-02-15T18:06:59.482Z,69.20
2019-02-15T18:11:03.972Z,68.90
2019-02-15T18:15:08.533Z,68.70
2019-02-15T18:19:13.088Z,68.70
2019-02-15T18:23:17.626Z,68.50
2019-02-15T18:27:22.180Z,68.20
2019-02-15T18:31:26.657Z,68.40
2019-02-15T18:35:31.199Z,68.40
2019-02-15T18:39:35.763Z,70.80
2019-02-15T18:43:40.279Z,71.40
2019-02-15T18:47:44.811Z,72.20
2019-02-15T18:51:49.344Z,70.60
2019-02-15T18:55:53.894Z,69.60
2019-02-15T18:59:58.443Z,69.10
2019-02-15T19:04:03.019Z,68.90
2019-02-15T19:08:07.550Z,68.90
2019-02-15T19:12:12.102Z,68.40
2019-02-15T19:16:16.702Z,68.70
2019-02-15T19:20:21.272Z,68.70
2019-02-15T19:24:25.843Z,68.80
2019-02-15T19:28:30.420Z,68.70
2019-02-15T19:32:35.166Z,68.70
2019-02-15T19:36:39.831Z,68.50
2019-02-15T19:40:44.588Z,68.60
2019-02-15T19:44:49.182Z,68.60
2019-02-15T19:48:53.832Z,68.60
2019-02-15T19:52:58.448Z,68.80
2019-02-15T19:57:01.971Z,70.30
2019-02-15T20:01:05.530Z,71.50
2019-02-15T20:05:08.966Z,71.90
2019-02-15T20:09:13.503Z,72.40
2019-02-15T20:13:18.095Z,72.50
2019-02-15T20:17:22.595Z,72.50
2019-02-15T20:21:27.121Z,73.10
2019-02-15T20:25:31.664Z,73.10
2019-02-15T20:29:36.149Z,73.30
2019-02-15T20:33:40.741Z,72.60
2019-02-15T20:37:45.270Z,72.60
2019-02-15T20:41:49.906Z,74.50
2019-02-15T20:45:54.387Z,72.90
2019-02-15T20:49:58.904Z,72.90
2019-02-15T20:54:03.427Z,72.70
2019-02-15T20:58:07.944Z,72.90
2019-02-15T21:02:14.331Z,73.70
2019-02-15T21:06:18.668Z,72.60
2019-02-15T21:10:23.192Z,71.60
2019-02-15T21:14:27.710Z,70.00
2019-02-15T21:18:32.235Z,71.60
2019-02-15T21:22:36.742Z,72.50
2019-02-15T21:26:41.263Z,72.60
2019-02-15T21:30:45.740Z,72.80
2019-02-15T21:34:50.279Z,72.80
2019-02-15T21:38:54.808Z,72.50
2019-02-15T21:42:59.432Z,73.80
2019-02-15T21:47:03.963Z,72.70
2019-02-15T21:51:08.444Z,72.40
2019-02-15T21:55:12.973Z,72.40
2019-02-15T21:59:17.488Z,71.00
2019-02-15T22:03:22.036Z,71.70
2019-02-15T22:07:26.554Z,72.60
2019-02-15T22:11:31.031Z,72.60
2019-02-15T22:15:35.565Z,70.90
2019-02-15T22:19:40.075Z,71.30
2019-02-15T22:23:44.645Z,72.10
2019-02-15T22:27:49.163Z,71.50
2019-02-15T22:31:53.639Z,72.70
2019-02-15T22:35:58.163Z,71.80
2019-02-15T22:40:34.811Z,73.60
2019-02-15T22:44:39.332Z,71.80
2019-02-15T22:48:43.857Z,71.70
2019-02-15T22:52:48.394Z,71.90
2019-02-15T22:56:52.887Z,72.80
2019-02-15T23:01:13.822Z,72.70
2019-02-15T23:05:18.371Z,72.10
2019-02-15T23:09:24.610Z,71.10
2019-02-15T23:13:29.131Z,71.20
2019-02-15T23:17:33.611Z,72.90
2019-02-15T23:21:38.136Z,73.30
2019-02-15T23:25:42.660Z,71.90
2019-02-15T23:29:47.186Z,72.00
2019-02-15T23:33:51.763Z,72.20
2019-02-15T23:37:56.252Z,72.60
2019-02-15T23:42:00.768Z,72.80
2019-02-15T23:46:05.284Z,72.90
2019-02-15T23:50:09.934Z,72.10
2019-02-15T23:54:14.446Z,72.50
2019-02-15T23:58:18.937Z,71.60
